PWSweather.com
Personal Weather Stations
Station Observations
WATERF01
WaterfordIE

WaterfordIE

Lat: 52.2412507, Lon: -7.1414691

Elevation: 65

Station Type: Davis Vantage Vue

www.waterfordweather.com

High Low Average
Temperature 65.7°F18.7°C 55.0°F12.8°C 60.9°F16.1°C
Dew Point 56.0°F13.3°C 47.7°F8.7°C 52.7°F11.5°C
Winds 8.1 mph 13.0 kmh Calm Calm 4.0 mph WNW6.4 kmh WNW
Wind Gusts 16.1 mph25.9 kmh -- 7.0 mph11.3 kmh
Humidity 85% 65% 75%
Pressure 29.87 in1011.5 mb 29.75 in1007.5 mb -
Precipitation 0.00 in0.0 mm - -
Hour Temp Dew Point Humidity Winds Wind Gusts Pressure Precip Precip Rate Daily Precip Total
12:00 AM 60.5°F15.8°C 56.0°F13.3°C 85% 4.6 mph NW7.4 kmh NW 9.2 mph14.8 kmh 29.87 in1011.5 mb - 0.00 in0.0 mm 0.00 in0.0 mm
12:10 AM 60.3°F15.7°C 55.8°F13.2°C 85% 5.8 mph NW9.3 kmh NW 9.2 mph14.8 kmh 29.87 in1011.5 mb - 0.00 in0.0 mm 0.00 in0.0 mm
12:20 AM 60.2°F15.7°C 55.3°F12.9°C 84% 5.8 mph NW9.3 kmh NW 8.1 mph13.0 kmh 29.87 in1011.5 mb - 0.00 in0.0 mm 0.00 in0.0 mm
12:30 AM 60.1°F15.6°C 54.9°F12.7°C 83% 5.8 mph NW9.3 kmh NW 8.1 mph13.0 kmh 29.86 in1011.2 mb - 0.00 in0.0 mm 0.00 in0.0 mm
12:40 AM 60.0°F15.6°C 54.8°F12.7°C 83% 5.8 mph NW9.3 kmh NW 9.2 mph14.8 kmh 29.86 in1011.2 mb - 0.00 in0.0 mm 0.00 in0.0 mm
12:50 AM 60.0°F15.6°C 55.2°F12.9°C 84% 3.5 mph NNW5.6 kmh NNW 8.1 mph13.0 kmh 29.86 in1011.2 mb - 0.00 in0.0 mm 0.00 in0.0 mm
01:00 AM 59.8°F15.4°C 55.0°F12.8°C 84% 3.5 mph NW5.6 kmh NW 8.1 mph13.0 kmh 29.86 in1011.2 mb - 0.00 in0.0 mm 0.00 in0.0 mm
01:10 AM 59.8°F15.4°C 55.0°F12.8°C 84% 3.5 mph NW5.6 kmh NW 5.8 mph9.3 kmh 29.86 in1011.2 mb - 0.00 in0.0 mm 0.00 in0.0 mm
01:20 AM 59.7°F15.4°C 54.9°F12.7°C 84% 6.9 mph NW11.1 kmh NW 8.1 mph13.0 kmh 29.86 in1011.2 mb - 0.00 in0.0 mm 0.00 in0.0 mm
01:30 AM 59.5°F15.3°C 54.7°F12.6°C 84% 4.6 mph NW7.4 kmh NW 9.2 mph14.8 kmh 29.85 in1010.8 mb - 0.00 in0.0 mm 0.00 in0.0 mm
01:40 AM 59.4°F15.2°C 54.5°F12.5°C 84% 4.6 mph NW7.4 kmh NW 8.1 mph13.0 kmh 29.86 in1011.2 mb - 0.00 in0.0 mm 0.00 in0.0 mm
01:50 AM 59.2°F15.1°C 54.4°F12.4°C 84% 2.3 mph NW3.7 kmh NW 6.9 mph11.1 kmh 29.85 in1010.8 mb - 0.00 in0.0 mm 0.00 in0.0 mm
02:00 AM 59.1°F15.1°C 54.2°F12.3°C 84% 3.5 mph NW5.6 kmh NW 6.9 mph11.1 kmh 29.85 in1010.8 mb - 0.00 in0.0 mm 0.00 in0.0 mm
02:10 AM 58.9°F14.9°C 54.1°F12.3°C 84% 2.3 mph NNW3.7 kmh NNW 5.8 mph9.3 kmh 29.85 in1010.8 mb - 0.00 in0.0 mm 0.00 in0.0 mm
02:20 AM 58.7°F14.8°C 53.9°F12.2°C 84% 5.8 mph NNW9.3 kmh NNW 8.1 mph13.0 kmh 29.85 in1010.8 mb - 0.00 in0.0 mm 0.00 in0.0 mm
02:30 AM 58.5°F14.7°C 53.7°F12.1°C 84% 4.6 mph NNW7.4 kmh NNW 6.9 mph11.1 kmh 29.85 in1010.8 mb - 0.00 in0.0 mm 0.00 in0.0 mm
02:40 AM 58.3°F14.6°C 53.5°F11.9°C 84% 3.5 mph NNW5.6 kmh NNW 8.1 mph13.0 kmh 29.85 in1010.8 mb - 0.00 in0.0 mm 0.00 in0.0 mm
02:50 AM 58.1°F14.5°C 53.3°F11.8°C 84% 3.5 mph NW5.6 kmh NW 4.6 mph7.4 kmh 29.85 in1010.8 mb - 0.00 in0.0 mm 0.00 in0.0 mm
03:00 AM 57.8°F14.3°C 52.7°F11.5°C 83% 5.8 mph NW9.3 kmh NW 8.1 mph13.0 kmh 29.85 in1010.8 mb - 0.00 in0.0 mm 0.00 in0.0 mm
03:10 AM 57.6°F14.2°C 52.5°F11.4°C 83% 4.6 mph NW7.4 kmh NW 8.1 mph13.0 kmh 29.84 in1010.5 mb - 0.00 in0.0 mm 0.00 in0.0 mm
03:20 AM 57.5°F14.2°C 52.4°F11.3°C 83% 5.8 mph NNW9.3 kmh NNW 8.1 mph13.0 kmh 29.85 in1010.8 mb - 0.00 in0.0 mm 0.00 in0.0 mm
03:30 AM 57.3°F14.1°C 52.5°F11.4°C 84% 3.5 mph NW5.6 kmh NW 5.8 mph9.3 kmh 29.84 in1010.5 mb - 0.00 in0.0 mm 0.00 in0.0 mm
03:40 AM 57.2°F14.0°C 52.4°F11.3°C 84% 4.6 mph NW7.4 kmh NW 8.1 mph13.0 kmh 29.84 in1010.5 mb - 0.00 in0.0 mm 0.00 in0.0 mm
03:50 AM 57.0°F13.9°C 52.5°F11.4°C 85% 4.6 mph NW7.4 kmh NW 5.8 mph9.3 kmh 29.84 in1010.5 mb - 0.00 in0.0 mm 0.00 in0.0 mm
04:00 AM 56.9°F13.8°C 52.4°F11.3°C 85% 4.6 mph NW7.4 kmh NW 8.1 mph13.0 kmh 29.84 in1010.5 mb - 0.00 in0.0 mm 0.00 in0.0 mm
06:50 AM 58.0°F14.4°C 52.2°F11.2°C 81% Calm Calm -- 29.84 in1010.5 mb - 0.00 in0.0 mm 0.00 in0.0 mm
07:00 AM 58.2°F14.6°C 52.1°F11.2°C 80% Calm Calm 1.2 mph1.9 kmh 29.84 in1010.5 mb - 0.00 in0.0 mm 0.00 in0.0 mm
07:10 AM 58.3°F14.6°C 52.5°F11.4°C 81% Calm Calm -- 29.84 in1010.5 mb - 0.00 in0.0 mm 0.00 in0.0 mm
07:20 AM 58.4°F14.7°C 51.6°F10.9°C 78% 3.5 mph NW5.6 kmh NW 9.2 mph14.8 kmh 29.84 in1010.5 mb - 0.00 in0.0 mm 0.00 in0.0 mm
07:30 AM 58.6°F14.8°C 51.7°F10.9°C 78% 4.6 mph WNW7.4 kmh WNW 9.2 mph14.8 kmh 29.84 in1010.5 mb - 0.00 in0.0 mm 0.00 in0.0 mm
07:40 AM 58.9°F14.9°C 52.1°F11.2°C 78% 4.6 mph NW7.4 kmh NW 8.1 mph13.0 kmh 29.84 in1010.5 mb - 0.00 in0.0 mm 0.00 in0.0 mm
07:50 AM 59.2°F15.1°C 52.0°F11.1°C 77% 2.3 mph NW3.7 kmh NW 5.8 mph9.3 kmh 29.84 in1010.5 mb - 0.00 in0.0 mm 0.00 in0.0 mm
08:00 AM 59.4°F15.2°C 52.2°F11.2°C 77% 1.2 mph NW1.9 kmh NW 4.6 mph7.4 kmh 29.84 in1010.5 mb - 0.00 in0.0 mm 0.00 in0.0 mm
08:10 AM 59.4°F15.2°C 52.2°F11.2°C 77% 2.3 mph NW3.7 kmh NW 4.6 mph7.4 kmh 29.84 in1010.5 mb - 0.00 in0.0 mm 0.00 in0.0 mm
08:20 AM 60.2°F15.7°C 52.3°F11.3°C 75% 3.5 mph WSW5.6 kmh WSW 6.9 mph11.1 kmh 29.83 in1010.2 mb - 0.00 in0.0 mm 0.00 in0.0 mm
08:30 AM 60.7°F15.9°C 52.0°F11.1°C 73% 1.2 mph WNW1.9 kmh WNW 2.3 mph3.7 kmh 29.83 in1010.2 mb - 0.00 in0.0 mm 0.00 in0.0 mm
08:40 AM 61.1°F16.2°C 51.2°F10.7°C 70% 3.5 mph WNW5.6 kmh WNW 5.8 mph9.3 kmh 29.83 in1010.2 mb - 0.00 in0.0 mm 0.00 in0.0 mm
08:50 AM 60.7°F15.9°C 50.9°F10.5°C 70% 3.5 mph NW5.6 kmh NW 8.1 mph13.0 kmh 29.82 in1009.8 mb - 0.00 in0.0 mm 0.00 in0.0 mm
09:00 AM 60.8°F16.0°C 49.4°F9.7°C 66% 4.6 mph WNW7.4 kmh WNW 6.9 mph11.1 kmh 29.82 in1009.8 mb - 0.00 in0.0 mm 0.00 in0.0 mm
09:10 AM 60.6°F15.9°C 50.0°F10.0°C 68% 4.6 mph W7.4 kmh W 8.1 mph13.0 kmh 29.83 in1010.2 mb - 0.00 in0.0 mm 0.00 in0.0 mm
09:20 AM 60.6°F15.9°C 50.0°F10.0°C 68% 4.6 mph WNW7.4 kmh WNW 8.1 mph13.0 kmh 29.82 in1009.8 mb - 0.00 in0.0 mm 0.00 in0.0 mm
09:30 AM 60.5°F15.8°C 49.9°F9.9°C 68% 4.6 mph NW7.4 kmh NW 9.2 mph14.8 kmh 29.82 in1009.8 mb - 0.00 in0.0 mm 0.00 in0.0 mm
09:40 AM 60.7°F15.9°C 49.6°F9.8°C 67% 4.6 mph WNW7.4 kmh WNW 8.1 mph13.0 kmh 29.82 in1009.8 mb - 0.00 in0.0 mm 0.00 in0.0 mm
09:50 AM 60.8°F16.0°C 49.4°F9.7°C 66% 3.5 mph WNW5.6 kmh WNW 5.8 mph9.3 kmh 29.82 in1009.8 mb - 0.00 in0.0 mm 0.00 in0.0 mm
10:00 AM 60.9°F16.1°C 49.9°F9.9°C 67% 3.5 mph WNW5.6 kmh WNW 5.8 mph9.3 kmh 29.82 in1009.8 mb - 0.00 in0.0 mm 0.00 in0.0 mm
10:10 AM 61.1°F16.2°C 50.1°F10.1°C 67% 2.3 mph WNW3.7 kmh WNW 5.8 mph9.3 kmh 29.82 in1009.8 mb - 0.00 in0.0 mm 0.00 in0.0 mm
10:20 AM 61.0°F16.1°C 50.0°F10.0°C 67% 2.3 mph NW3.7 kmh NW 5.8 mph9.3 kmh 29.82 in1009.8 mb - 0.00 in0.0 mm 0.00 in0.0 mm
10:30 AM 61.1°F16.2°C 50.1°F10.1°C 67% 4.6 mph WNW7.4 kmh WNW 6.9 mph11.1 kmh 29.82 in1009.8 mb - 0.00 in0.0 mm 0.00 in0.0 mm
10:40 AM 61.1°F16.2°C 50.1°F10.1°C 67% Calm Calm -- 29.82 in1009.8 mb - 0.00 in0.0 mm 0.00 in0.0 mm
10:50 AM 61.3°F16.3°C 50.6°F10.3°C 68% 3.5 mph W5.6 kmh W 6.9 mph11.1 kmh 29.82 in1009.8 mb - 0.00 in0.0 mm 0.00 in0.0 mm
11:00 AM 61.4°F16.3°C 51.5°F10.8°C 70% 2.3 mph SW3.7 kmh SW 6.9 mph11.1 kmh 29.82 in1009.8 mb - 0.00 in0.0 mm 0.00 in0.0 mm
11:10 AM 62.7°F17.1°C 52.0°F11.1°C 68% 1.2 mph W1.9 kmh W 5.8 mph9.3 kmh 29.81 in1009.5 mb - 0.00 in0.0 mm 0.00 in0.0 mm
11:20 AM 62.8°F17.1°C 51.3°F10.7°C 66% 4.6 mph WNW7.4 kmh WNW 6.9 mph11.1 kmh 29.81 in1009.5 mb - 0.00 in0.0 mm 0.00 in0.0 mm
11:30 AM 62.4°F16.9°C 51.7°F10.9°C 68% 3.5 mph W5.6 kmh W 5.8 mph9.3 kmh 29.81 in1009.5 mb - 0.00 in0.0 mm 0.00 in0.0 mm
11:40 AM 62.4°F16.9°C 51.3°F10.7°C 67% 2.3 mph W3.7 kmh W 4.6 mph7.4 kmh 29.81 in1009.5 mb - 0.00 in0.0 mm 0.00 in0.0 mm
11:50 AM 62.9°F17.2°C 51.4°F10.8°C 66% 2.3 mph WNW3.7 kmh WNW 2.3 mph3.7 kmh 29.80 in1009.1 mb - 0.00 in0.0 mm 0.00 in0.0 mm
12:00 PM 63.3°F17.4°C 51.7°F10.9°C 66% 3.5 mph W5.6 kmh W 8.1 mph13.0 kmh 29.80 in1009.1 mb - 0.00 in0.0 mm 0.00 in0.0 mm
12:10 PM 62.8°F17.1°C 52.8°F11.6°C 70% 5.8 mph W9.3 kmh W 8.1 mph13.0 kmh 29.80 in1009.1 mb - 0.00 in0.0 mm 0.00 in0.0 mm
12:20 PM 62.6°F17.0°C 52.7°F11.5°C 70% 3.5 mph WSW5.6 kmh WSW 5.8 mph9.3 kmh 29.80 in1009.1 mb - 0.00 in0.0 mm 0.00 in0.0 mm
12:30 PM 62.9°F17.2°C 53.0°F11.7°C 70% Calm Calm -- 29.80 in1009.1 mb - 0.00 in0.0 mm 0.00 in0.0 mm
12:40 PM 63.5°F17.5°C 53.1°F11.7°C 69% 1.2 mph NW1.9 kmh NW 5.8 mph9.3 kmh 29.80 in1009.1 mb - 0.00 in0.0 mm 0.00 in0.0 mm
12:50 PM 63.7°F17.6°C 52.9°F11.6°C 68% 4.6 mph SW7.4 kmh SW 11.5 mph18.5 kmh 29.80 in1009.1 mb - 0.00 in0.0 mm 0.00 in0.0 mm
01:00 PM 63.9°F17.7°C 53.5°F11.9°C 69% 3.5 mph WSW5.6 kmh WSW 5.8 mph9.3 kmh 29.80 in1009.1 mb - 0.00 in0.0 mm 0.00 in0.0 mm
01:10 PM 63.8°F17.7°C 53.4°F11.9°C 69% 4.6 mph WSW7.4 kmh WSW 6.9 mph11.1 kmh 29.80 in1009.1 mb - 0.00 in0.0 mm 0.00 in0.0 mm
01:20 PM 63.8°F17.7°C 53.4°F11.9°C 69% 2.3 mph WSW3.7 kmh WSW 8.1 mph13.0 kmh 29.80 in1009.1 mb - 0.00 in0.0 mm 0.00 in0.0 mm
01:30 PM 64.5°F18.1°C 54.1°F12.3°C 69% 8.1 mph WSW13.0 kmh WSW 13.8 mph22.2 kmh 29.80 in1009.1 mb - 0.00 in0.0 mm 0.00 in0.0 mm
01:40 PM 64.6°F18.1°C 54.6°F12.6°C 70% 5.8 mph WSW9.3 kmh WSW 11.5 mph18.5 kmh 29.80 in1009.1 mb - 0.00 in0.0 mm 0.00 in0.0 mm
01:50 PM 64.2°F17.9°C 54.2°F12.3°C 70% 5.8 mph WSW9.3 kmh WSW 8.1 mph13.0 kmh 29.80 in1009.1 mb - 0.00 in0.0 mm 0.00 in0.0 mm
02:00 PM 64.1°F17.8°C 54.1°F12.3°C 70% 6.9 mph SW11.1 kmh SW 9.2 mph14.8 kmh 29.79 in1008.8 mb - 0.00 in0.0 mm 0.00 in0.0 mm
02:10 PM 64.3°F17.9°C 54.7°F12.6°C 71% 5.8 mph WNW9.3 kmh WNW 8.1 mph13.0 kmh 29.79 in1008.8 mb - 0.00 in0.0 mm 0.00 in0.0 mm
02:20 PM 64.7°F18.2°C 54.3°F12.4°C 69% 5.8 mph NW9.3 kmh NW 9.2 mph14.8 kmh 29.78 in1008.5 mb - 0.00 in0.0 mm 0.00 in0.0 mm
02:30 PM 65.5°F18.6°C 54.7°F12.6°C 68% 6.9 mph WSW11.1 kmh WSW 13.8 mph22.2 kmh 29.78 in1008.5 mb - 0.00 in0.0 mm 0.00 in0.0 mm
02:40 PM 65.7°F18.7°C 55.2°F12.9°C 69% 8.1 mph WSW13.0 kmh WSW 16.1 mph25.9 kmh 29.78 in1008.5 mb - 0.00 in0.0 mm 0.00 in0.0 mm
02:50 PM 65.1°F18.4°C 55.0°F12.8°C 70% 8.1 mph SW13.0 kmh SW 12.7 mph20.4 kmh 29.78 in1008.5 mb - 0.00 in0.0 mm 0.00 in0.0 mm
03:00 PM 64.2°F17.9°C 54.2°F12.3°C 70% 6.9 mph WSW11.1 kmh WSW 13.8 mph22.2 kmh 29.78 in1008.5 mb - 0.00 in0.0 mm 0.00 in0.0 mm
03:10 PM 63.8°F17.7°C 55.0°F12.8°C 73% 6.9 mph WSW11.1 kmh WSW 11.5 mph18.5 kmh 29.78 in1008.5 mb - 0.00 in0.0 mm 0.00 in0.0 mm
03:20 PM 62.9°F17.2°C 54.2°F12.3°C 73% 8.1 mph WSW13.0 kmh WSW 13.8 mph22.2 kmh 29.78 in1008.5 mb - 0.00 in0.0 mm 0.00 in0.0 mm
03:30 PM 62.9°F17.2°C 54.9°F12.7°C 75% 5.8 mph W9.3 kmh W 9.2 mph14.8 kmh 29.77 in1008.1 mb - 0.00 in0.0 mm 0.00 in0.0 mm
03:40 PM 63.3°F17.4°C 54.5°F12.5°C 73% 5.8 mph WSW9.3 kmh WSW 12.7 mph20.4 kmh 29.77 in1008.1 mb - 0.00 in0.0 mm 0.00 in0.0 mm
03:50 PM 63.2°F17.3°C 54.1°F12.3°C 72% 6.9 mph WSW11.1 kmh WSW 12.7 mph20.4 kmh 29.77 in1008.1 mb - 0.00 in0.0 mm 0.00 in0.0 mm
04:00 PM 63.4°F17.4°C 54.5°F12.5°C 73% 5.8 mph W9.3 kmh W 11.5 mph18.5 kmh 29.77 in1008.1 mb - 0.00 in0.0 mm 0.00 in0.0 mm
04:10 PM 63.5°F17.5°C 54.3°F12.4°C 72% 6.9 mph WSW11.1 kmh WSW 9.2 mph14.8 kmh 29.77 in1008.1 mb - 0.00 in0.0 mm 0.00 in0.0 mm
04:20 PM 63.9°F17.7°C 55.1°F12.8°C 73% 3.5 mph SW5.6 kmh SW 5.8 mph9.3 kmh 29.77 in1008.1 mb - 0.00 in0.0 mm 0.00 in0.0 mm
04:30 PM 64.6°F18.1°C 55.7°F13.2°C 73% 5.8 mph WSW9.3 kmh WSW 8.1 mph13.0 kmh 29.77 in1008.1 mb - 0.00 in0.0 mm 0.00 in0.0 mm
04:40 PM 65.0°F18.3°C 55.7°F13.2°C 72% 4.6 mph WSW7.4 kmh WSW 5.8 mph9.3 kmh 29.76 in1007.8 mb - 0.00 in0.0 mm 0.00 in0.0 mm
04:50 PM 64.6°F18.1°C 55.4°F13.0°C 72% 4.6 mph WNW7.4 kmh WNW 8.1 mph13.0 kmh 29.76 in1007.8 mb - 0.00 in0.0 mm 0.00 in0.0 mm
05:00 PM 64.9°F18.3°C 56.0°F13.3°C 73% 5.8 mph SW9.3 kmh SW 8.1 mph13.0 kmh 29.75 in1007.5 mb - 0.00 in0.0 mm 0.00 in0.0 mm
05:10 PM 64.9°F18.3°C 56.0°F13.3°C 73% 5.8 mph W9.3 kmh W 11.5 mph18.5 kmh 29.75 in1007.5 mb - 0.00 in0.0 mm 0.00 in0.0 mm
05:20 PM 64.5°F18.1°C 55.7°F13.2°C 73% 5.8 mph WNW9.3 kmh WNW 8.1 mph13.0 kmh 29.75 in1007.5 mb - 0.00 in0.0 mm 0.00 in0.0 mm
05:30 PM 64.6°F18.1°C 55.7°F13.2°C 73% 5.8 mph NE9.3 kmh NE 12.7 mph20.4 kmh 29.75 in1007.5 mb - 0.00 in0.0 mm 0.00 in0.0 mm
05:40 PM 65.4°F18.6°C 55.7°F13.2°C 71% 5.8 mph W9.3 kmh W 11.5 mph18.5 kmh 29.75 in1007.5 mb - 0.00 in0.0 mm 0.00 in0.0 mm
05:50 PM 64.9°F18.3°C 53.3°F11.8°C 66% 8.1 mph WNW13.0 kmh WNW 13.8 mph22.2 kmh 29.75 in1007.5 mb - 0.00 in0.0 mm 0.00 in0.0 mm
06:00 PM 64.0°F17.8°C 53.3°F11.8°C 68% 4.6 mph NW7.4 kmh NW 6.9 mph11.1 kmh 29.75 in1007.5 mb - 0.00 in0.0 mm 0.00 in0.0 mm
06:10 PM 63.8°F17.7°C 53.0°F11.7°C 68% 4.6 mph NW7.4 kmh NW 8.1 mph13.0 kmh 29.75 in1007.5 mb - 0.00 in0.0 mm 0.00 in0.0 mm
06:20 PM 63.9°F17.7°C 53.6°F12.0°C 69% 4.6 mph NW7.4 kmh NW 5.8 mph9.3 kmh 29.75 in1007.5 mb - 0.00 in0.0 mm 0.00 in0.0 mm
06:30 PM 64.8°F18.2°C 53.6°F12.0°C 67% 2.3 mph WNW3.7 kmh WNW 3.5 mph5.6 kmh 29.75 in1007.5 mb - 0.00 in0.0 mm 0.00 in0.0 mm
06:40 PM 65.5°F18.6°C 53.5°F11.9°C 65% 4.6 mph WNW7.4 kmh WNW 8.1 mph13.0 kmh 29.75 in1007.5 mb - 0.00 in0.0 mm 0.00 in0.0 mm
06:50 PM 64.0°F17.8°C 54.8°F12.7°C 72% 3.5 mph W5.6 kmh W 5.8 mph9.3 kmh 29.76 in1007.8 mb - 0.00 in0.0 mm 0.00 in0.0 mm
07:00 PM 62.4°F16.9°C 54.7°F12.6°C 76% Calm Calm 4.6 mph7.4 kmh 29.76 in1007.8 mb - 0.00 in0.0 mm 0.00 in0.0 mm
07:10 PM 61.9°F16.6°C 54.6°F12.6°C 77% 3.5 mph W5.6 kmh W 5.8 mph9.3 kmh 29.76 in1007.8 mb - 0.00 in0.0 mm 0.00 in0.0 mm
07:20 PM 61.7°F16.5°C 54.4°F12.4°C 77% 1.2 mph W1.9 kmh W 2.3 mph3.7 kmh 29.76 in1007.8 mb - 0.00 in0.0 mm 0.00 in0.0 mm
07:30 PM 61.5°F16.4°C 54.5°F12.5°C 78% 2.3 mph W3.7 kmh W 5.8 mph9.3 kmh 29.76 in1007.8 mb - 0.00 in0.0 mm 0.00 in0.0 mm
07:40 PM 61.4°F16.3°C 54.5°F12.5°C 78% 3.5 mph W5.6 kmh W 5.8 mph9.3 kmh 29.75 in1007.5 mb - 0.00 in0.0 mm 0.00 in0.0 mm
07:50 PM 61.6°F16.4°C 54.7°F12.6°C 78% 4.6 mph WSW7.4 kmh WSW 5.8 mph9.3 kmh 29.76 in1007.8 mb - 0.00 in0.0 mm 0.00 in0.0 mm
08:00 PM 61.5°F16.4°C 54.6°F12.6°C 78% 2.3 mph WNW3.7 kmh WNW 5.8 mph9.3 kmh 29.76 in1007.8 mb - 0.00 in0.0 mm 0.00 in0.0 mm
08:10 PM 61.3°F16.3°C 54.7°F12.6°C 79% 1.2 mph SSW1.9 kmh SSW -- 29.76 in1007.8 mb - 0.00 in0.0 mm 0.00 in0.0 mm
08:20 PM 61.1°F16.2°C 54.5°F12.5°C 79% Calm Calm 1.2 mph1.9 kmh 29.76 in1007.8 mb - 0.00 in0.0 mm 0.00 in0.0 mm
08:30 PM 60.9°F16.1°C 54.3°F12.4°C 79% Calm Calm -- 29.76 in1007.8 mb - 0.00 in0.0 mm 0.00 in0.0 mm
08:40 PM 60.8°F16.0°C 54.2°F12.3°C 79% Calm Calm -- 29.76 in1007.8 mb - 0.00 in0.0 mm 0.00 in0.0 mm
08:50 PM 60.5°F15.8°C 53.6°F12.0°C 78% 1.2 mph WNW1.9 kmh WNW 5.8 mph9.3 kmh 29.76 in1007.8 mb - 0.00 in0.0 mm 0.00 in0.0 mm
09:00 PM 60.1°F15.6°C 51.4°F10.8°C 73% 1.2 mph WNW1.9 kmh WNW 5.8 mph9.3 kmh 29.76 in1007.8 mb - 0.00 in0.0 mm 0.00 in0.0 mm
09:10 PM 59.7°F15.4°C 50.3°F10.2°C 71% 2.3 mph W3.7 kmh W 5.8 mph9.3 kmh 29.76 in1007.8 mb - 0.00 in0.0 mm 0.00 in0.0 mm
09:20 PM 59.0°F15.0°C 49.6°F9.8°C 71% Calm Calm -- 29.77 in1008.1 mb - 0.00 in0.0 mm 0.00 in0.0 mm
09:30 PM 58.1°F14.5°C 48.8°F9.3°C 71% Calm Calm -- 29.76 in1007.8 mb - 0.00 in0.0 mm 0.00 in0.0 mm
09:40 PM 57.5°F14.2°C 48.5°F9.2°C 72% 1.2 mph W1.9 kmh W 2.3 mph3.7 kmh 29.76 in1007.8 mb - 0.00 in0.0 mm 0.00 in0.0 mm
09:50 PM 56.9°F13.8°C 48.3°F9.1°C 73% Calm Calm -- 29.77 in1008.1 mb - 0.00 in0.0 mm 0.00 in0.0 mm
10:00 PM 56.5°F13.6°C 48.3°F9.1°C 74% Calm Calm -- 29.77 in1008.1 mb - 0.00 in0.0 mm 0.00 in0.0 mm
10:10 PM 56.0°F13.3°C 47.8°F8.8°C 74% Calm Calm 4.6 mph7.4 kmh 29.77 in1008.1 mb - 0.00 in0.0 mm 0.00 in0.0 mm
10:20 PM 56.2°F13.4°C 47.7°F8.7°C 73% 3.5 mph W5.6 kmh W 5.8 mph9.3 kmh 29.76 in1007.8 mb - 0.00 in0.0 mm 0.00 in0.0 mm
10:30 PM 55.9°F13.3°C 47.7°F8.7°C 74% 2.3 mph W3.7 kmh W 2.3 mph3.7 kmh 29.76 in1007.8 mb - 0.00 in0.0 mm 0.00 in0.0 mm
10:40 PM 55.7°F13.2°C 47.9°F8.8°C 75% Calm Calm -- 29.76 in1007.8 mb - 0.00 in0.0 mm 0.00 in0.0 mm
10:50 PM 55.3°F12.9°C 47.9°F8.8°C 76% 2.3 mph WNW3.7 kmh WNW 4.6 mph7.4 kmh 29.76 in1007.8 mb - 0.00 in0.0 mm 0.00 in0.0 mm
11:00 PM 55.0°F12.8°C 47.9°F8.8°C 77% 2.3 mph WNW3.7 kmh WNW 8.1 mph13.0 kmh 29.76 in1007.8 mb - 0.00 in0.0 mm 0.00 in0.0 mm
11:10 PM 55.3°F12.9°C 48.5°F9.2°C 78% 5.8 mph W9.3 kmh W 8.1 mph13.0 kmh 29.76 in1007.8 mb - 0.00 in0.0 mm 0.00 in0.0 mm
11:20 PM 55.4°F13.0°C 48.7°F9.3°C 78% 3.5 mph WNW5.6 kmh WNW 5.8 mph9.3 kmh 29.76 in1007.8 mb - 0.00 in0.0 mm 0.00 in0.0 mm
11:30 PM 55.4°F13.0°C 48.7°F9.3°C 78% 2.3 mph W3.7 kmh W 2.3 mph3.7 kmh 29.76 in1007.8 mb - 0.00 in0.0 mm 0.00 in0.0 mm
11:40 PM 55.2°F12.9°C 48.8°F9.3°C 79% 2.3 mph WSW3.7 kmh WSW 5.8 mph9.3 kmh 29.76 in1007.8 mb - 0.00 in0.0 mm 0.00 in0.0 mm
11:50 PM 55.7°F13.2°C 49.3°F9.6°C 79% 3.5 mph WNW5.6 kmh WNW 5.8 mph9.3 kmh 29.76 in1007.8 mb - 0.00 in0.0 mm 0.00 in0.0 mm